createdAt,value
2018-08-13T00:00:45.763Z,0.00
2018-08-13T00:01:45.741Z,0.00
2018-08-13T00:02:45.716Z,0.00
2018-08-13T00:03:45.692Z,0.00
2018-08-13T00:04:45.686Z,0.00
2018-08-13T00:05:45.646Z,0.00
2018-08-13T00:06:45.621Z,0.00
2018-08-13T00:07:45.600Z,0.00
2018-08-13T00:08:45.580Z,0.00
2018-08-13T00:09:45.551Z,0.00
2018-08-13T00:10:45.731Z,0.00
2018-08-13T00:11:45.510Z,0.00
2018-08-13T00:12:45.481Z,0.00
2018-08-13T00:13:45.457Z,0.00
2018-08-13T00:14:45.437Z,0.00
2018-08-13T00:15:45.415Z,0.00
2018-08-13T00:16:45.386Z,0.00
2018-08-13T00:17:45.365Z,0.00
2018-08-13T00:18:45.340Z,0.00
2018-08-13T00:19:45.320Z,0.00
2018-08-13T00:20:45.298Z,0.00
2018-08-13T00:21:45.278Z,0.00
2018-08-13T00:22:45.246Z,0.00
2018-08-13T00:23:45.223Z,0.00
2018-08-13T00:24:45.204Z,0.00
2018-08-13T00:25:45.175Z,0.00
2018-08-13T00:26:45.152Z,0.00
2018-08-13T00:27:45.131Z,0.00
2018-08-13T00:28:45.106Z,0.00
2018-08-13T00:29:45.080Z,0.00
2018-08-13T00:30:45.260Z,0.00
2018-08-13T00:31:45.237Z,0.00
2018-08-13T00:32:45.012Z,0.00
2018-08-13T00:33:44.989Z,0.00
2018-08-13T00:34:44.969Z,0.00
2018-08-13T00:35:44.942Z,0.00
2018-08-13T00:36:44.915Z,0.00
2018-08-13T00:37:44.893Z,0.00
2018-08-13T00:38:44.869Z,0.00
2018-08-13T00:39:44.844Z,0.00
2018-08-13T00:40:44.826Z,0.00
2018-08-13T00:41:44.798Z,0.00
2018-08-13T00:42:44.776Z,0.00
2018-08-13T00:43:44.751Z,0.00
2018-08-13T00:44:44.728Z,0.00
2018-08-13T00:45:44.704Z,0.00
2018-08-13T00:46:44.687Z,0.00
2018-08-13T00:47:44.656Z,0.00
2018-08-13T00:48:44.633Z,0.00
2018-08-13T00:49:44.618Z,0.00
2018-08-13T00:50:44.585Z,0.00
2018-08-13T00:51:44.564Z,0.00
2018-08-13T00:52:44.538Z,0.00
2018-08-13T00:53:44.513Z,0.00
2018-08-13T00:54:44.492Z,0.00
2018-08-13T00:55:44.970Z,0.00
2018-08-13T00:56:44.444Z,0.00
2018-08-13T00:57:44.421Z,0.00
2018-08-13T00:58:44.401Z,0.00
2018-08-13T00:59:44.374Z,0.00
2018-08-13T01:00:44.349Z,0.00
2018-08-13T01:01:44.534Z,0.00
2018-08-13T01:02:44.309Z,0.00
2018-08-13T01:03:44.279Z,0.00
2018-08-13T01:04:44.255Z,0.00
2018-08-13T01:05:44.232Z,0.00
2018-08-13T01:06:44.410Z,0.00
2018-08-13T01:07:44.186Z,0.00
2018-08-13T01:08:44.161Z,0.00
2018-08-13T01:09:44.140Z,0.00
2018-08-13T01:10:44.115Z,0.00
2018-08-13T01:11:44.292Z,0.00
2018-08-13T01:12:44.066Z,0.00
2018-08-13T01:13:44.245Z,0.00
2018-08-13T01:14:44.020Z,0.00
2018-08-13T01:15:43.996Z,0.00
2018-08-13T01:16:43.972Z,0.00
2018-08-13T01:17:43.949Z,0.00
2018-08-13T01:18:43.929Z,0.00
2018-08-13T01:19:43.901Z,0.00
2018-08-13T01:20:43.877Z,0.00
2018-08-13T01:21:43.853Z,0.00
2018-08-13T01:22:43.830Z,0.00
2018-08-13T01:23:43.805Z,0.00
2018-08-13T01:24:43.787Z,0.00
2018-08-13T01:25:43.759Z,0.00
2018-08-13T01:26:43.734Z,0.00
2018-08-13T01:27:43.712Z,0.00
2018-08-13T01:28:43.900Z,0.00
2018-08-13T01:29:43.664Z,0.00
2018-08-13T01:30:43.640Z,0.00
2018-08-13T01:31:43.616Z,0.00
2018-08-13T01:32:43.592Z,0.00
2018-08-13T01:33:43.569Z,0.00
2018-08-13T01:34:43.546Z,0.00
2018-08-13T01:35:43.522Z,0.00
2018-08-13T01:36:43.502Z,0.00
2018-08-13T01:37:43.474Z,0.00
2018-08-13T01:38:43.454Z,0.00
2018-08-13T01:39:43.432Z,0.00
2018-08-13T01:40:43.403Z,0.00
2018-08-13T01:41:43.379Z,0.00
2018-08-13T01:42:43.357Z,0.00
2018-08-13T01:43:43.333Z,0.00
2018-08-13T01:44:43.310Z,0.00
2018-08-13T01:45:43.307Z,0.00
2018-08-13T01:46:43.262Z,0.00
2018-08-13T01:47:43.238Z,0.00
2018-08-13T01:48:43.212Z,0.00
2018-08-13T01:49:43.192Z,0.00
2018-08-13T01:50:43.166Z,0.00
2018-08-13T01:51:43.142Z,0.00
2018-08-13T01:52:43.118Z,0.00
2018-08-13T01:53:43.394Z,0.00
2018-08-13T01:54:43.071Z,0.00
2018-08-13T01:55:43.047Z,0.00
2018-08-13T01:56:43.022Z,0.00
2018-08-13T01:57:42.999Z,0.00
2018-08-13T01:58:42.978Z,0.00
2018-08-13T01:59:42.960Z,0.00
2018-08-13T02:00:42.927Z,0.00
2018-08-13T02:01:42.948Z,0.00
2018-08-13T02:02:42.880Z,0.00
2018-08-13T02:03:42.859Z,0.00
2018-08-13T02:04:42.833Z,0.00
2018-08-13T02:05:42.822Z,0.00
2018-08-13T02:06:42.788Z,0.00
2018-08-13T02:07:42.766Z,0.00
2018-08-13T02:08:42.739Z,0.00
2018-08-13T02:09:42.714Z,0.00
2018-08-13T02:10:42.691Z,0.00
2018-08-13T02:11:42.667Z,0.00
2018-08-13T02:12:42.642Z,0.00
2018-08-13T02:13:42.671Z,0.00
2018-08-13T02:14:42.596Z,0.00
2018-08-13T02:15:42.604Z,0.00
2018-08-13T02:16:42.547Z,0.00
2018-08-13T02:17:42.524Z,0.00
2018-08-13T02:18:42.501Z,0.00
2018-08-13T02:19:42.477Z,0.00
2018-08-13T02:20:42.451Z,0.00
2018-08-13T02:21:42.429Z,0.00
2018-08-13T02:22:42.409Z,0.00
2018-08-13T02:23:42.382Z,0.00
2018-08-13T02:24:42.358Z,0.00
2018-08-13T02:25:42.337Z,0.00
2018-08-13T02:26:42.310Z,0.00
2018-08-13T02:27:42.288Z,0.00
2018-08-13T02:28:42.615Z,0.00
2018-08-13T02:29:42.242Z,0.00
2018-08-13T02:30:42.216Z,0.00
2018-08-13T02:31:42.194Z,0.00
2018-08-13T02:32:42.167Z,0.00
2018-08-13T02:33:42.144Z,0.00
2018-08-13T02:34:42.120Z,0.00
2018-08-13T02:35:42.105Z,0.00
2018-08-13T02:36:42.073Z,0.00
2018-08-13T02:37:42.056Z,0.00
2018-08-13T02:38:42.027Z,0.00
2018-08-13T02:39:42.002Z,0.00
2018-08-13T02:40:41.978Z,0.00
2018-08-13T02:41:41.959Z,0.00
2018-08-13T02:42:41.937Z,0.00
2018-08-13T02:43:41.909Z,0.00
2018-08-13T02:44:41.883Z,0.00
2018-08-13T02:45:41.867Z,0.00
2018-08-13T02:46:41.838Z,0.00
2018-08-13T02:47:41.812Z,0.00
2018-08-13T02:48:41.787Z,0.00
2018-08-13T02:49:41.765Z,0.00
2018-08-13T02:50:41.743Z,0.00
2018-08-13T02:51:41.720Z,0.00
2018-08-13T02:52:41.694Z,0.00
2018-08-13T02:53:41.677Z,0.00
2018-08-13T02:54:41.647Z,0.00
2018-08-13T02:55:41.622Z,0.00
2018-08-13T02:56:41.596Z,0.00
2018-08-13T02:57:41.574Z,0.00
2018-08-13T02:58:41.557Z,0.00
2018-08-13T02:59:41.527Z,0.00
2018-08-13T03:00:41.708Z,0.00
2018-08-13T03:01:41.480Z,0.00
2018-08-13T03:02:41.458Z,0.00
2018-08-13T03:03:41.688Z,0.00
2018-08-13T03:04:41.416Z,0.00
2018-08-13T03:05:41.385Z,0.00
2018-08-13T03:06:41.360Z,0.00
2018-08-13T03:07:41.338Z,0.00
2018-08-13T03:08:41.317Z,0.00
2018-08-13T03:09:41.287Z,0.00
2018-08-13T03:10:41.267Z,0.00
2018-08-13T03:11:41.240Z,0.00
2018-08-13T03:12:41.215Z,0.00
2018-08-13T03:13:41.194Z,0.00
2018-08-13T03:14:41.169Z,0.00
2018-08-13T03:15:41.148Z,0.00
2018-08-13T03:16:41.120Z,0.00
2018-08-13T03:17:41.096Z,0.00
2018-08-13T03:18:41.073Z,4.00
2018-08-13T03:19:41.048Z,4.00
2018-08-13T03:20:41.026Z,4.00
2018-08-13T03:21:41.001Z,4.00
2018-08-13T03:22:40.984Z,4.00
2018-08-13T03:23:40.954Z,8.00
2018-08-13T03:24:40.929Z,4.00
2018-08-13T03:25:40.906Z,8.00
2018-08-13T03:26:40.887Z,12.00
2018-08-13T03:27:40.862Z,12.00
2018-08-13T03:28:40.833Z,12.00
2018-08-13T03:29:40.810Z,12.00
2018-08-13T03:30:40.787Z,16.00
2018-08-13T03:31:40.964Z,16.00
2018-08-13T03:32:40.941Z,20.00
2018-08-13T03:33:40.919Z,28.00
2018-08-13T03:34:40.690Z,28.00
2018-08-13T03:35:40.666Z,32.00
2018-08-13T03:36:40.646Z,40.00
2018-08-13T03:37:40.619Z,44.00
2018-08-13T03:38:40.893Z,48.00
2018-08-13T03:39:40.568Z,56.00
2018-08-13T03:40:40.551Z,56.00
2018-08-13T03:41:40.523Z,68.00
2018-08-13T03:42:40.500Z,76.00
2018-08-13T03:43:40.477Z,84.00
2018-08-13T03:44:40.451Z,100.00
2018-08-13T03:45:40.425Z,112.00
2018-08-13T03:46:40.402Z,128.00
2018-08-13T03:47:40.377Z,144.00
2018-08-13T03:48:40.355Z,164.00
2018-08-13T03:49:40.331Z,184.00
2018-08-13T03:50:40.304Z,200.00
2018-08-13T03:51:40.281Z,220.00
2018-08-13T03:52:40.257Z,236.00
2018-08-13T03:53:40.273Z,252.00
2018-08-13T03:54:40.211Z,264.00
2018-08-13T03:55:40.185Z,284.00
2018-08-13T03:56:40.160Z,296.00
2018-08-13T03:57:40.137Z,316.00
2018-08-13T03:58:40.113Z,336.00
2018-08-13T03:59:40.091Z,364.00
2018-08-13T04:00:40.065Z,388.00
2018-08-13T04:01:40.041Z,412.00
2018-08-13T04:02:40.018Z,432.00
2018-08-13T04:03:39.993Z,456.00
2018-08-13T04:04:39.973Z,488.00
2018-08-13T04:05:39.945Z,520.00
2018-08-13T04:06:39.927Z,556.00
2018-08-13T04:07:40.135Z,592.00
2018-08-13T04:08:39.915Z,636.00
2018-08-13T04:09:39.849Z,676.00
2018-08-13T04:10:39.825Z,720.00
2018-08-13T04:11:39.803Z,760.00
2018-08-13T04:12:39.776Z,808.00
2018-08-13T04:13:39.956Z,852.00
2018-08-13T04:14:39.939Z,900.00
2018-08-13T04:15:39.706Z,948.00
2018-08-13T04:16:39.682Z,1008.00
2018-08-13T04:17:39.658Z,1096.00
2018-08-13T04:18:39.844Z,1200.00
2018-08-13T04:19:39.812Z,1292.00
2018-08-13T04:20:39.788Z,1380.00
2018-08-13T04:21:39.562Z,1452.00
2018-08-13T04:22:39.552Z,1468.00
2018-08-13T04:23:39.514Z,1488.00
2018-08-13T04:24:39.490Z,1528.00
2018-08-13T04:25:39.466Z,1584.00
2018-08-13T04:26:39.443Z,1648.00
2018-08-13T04:27:39.621Z,1696.00
2018-08-13T04:28:39.394Z,1740.00
2018-08-13T04:29:39.370Z,1760.00
2018-08-13T04:30:39.347Z,1756.00
2018-08-13T04:31:39.322Z,1748.00
2018-08-13T04:32:39.350Z,1736.00
2018-08-13T04:33:39.278Z,1724.00
2018-08-13T04:34:39.252Z,1712.00
2018-08-13T04:35:39.228Z,1724.00
2018-08-13T04:36:39.204Z,1772.00
2018-08-13T04:37:39.180Z,1880.00
2018-08-13T04:38:39.163Z,2036.00
2018-08-13T04:39:39.145Z,2224.00
2018-08-13T04:40:39.108Z,2412.00
2018-08-13T04:41:39.086Z,2576.00
2018-08-13T04:42:39.062Z,2712.00
2018-08-13T04:43:39.039Z,2824.00
2018-08-13T04:44:39.014Z,2904.00
2018-08-13T04:45:38.992Z,2968.00
2018-08-13T04:46:38.967Z,3004.00
2018-08-13T04:47:38.944Z,3024.00
2018-08-13T04:48:38.920Z,3044.00
2018-08-13T04:49:38.898Z,3056.00
2018-08-13T04:50:38.875Z,3096.00
2018-08-13T04:51:38.849Z,3136.00
2018-08-13T04:52:38.825Z,3196.00
2018-08-13T04:53:38.801Z,3288.00
2018-08-13T04:54:38.788Z,3356.00
2018-08-13T04:55:38.753Z,3396.00
2018-08-13T04:56:38.730Z,3456.00
2018-08-13T04:57:38.708Z,3588.00
2018-08-13T04:58:38.682Z,3776.00
2018-08-13T04:59:38.664Z,3976.00
2018-08-13T05:00:38.637Z,4204.00
2018-08-13T05:01:38.612Z,4424.00
2018-08-13T05:02:38.590Z,4568.00
2018-08-13T05:03:38.568Z,4644.00
2018-08-13T05:04:38.542Z,4700.00
2018-08-13T05:05:38.518Z,4756.00
2018-08-13T05:06:38.493Z,4804.00
2018-08-13T05:07:38.472Z,4868.00
2018-08-13T05:08:38.447Z,5008.00
2018-08-13T05:09:38.428Z,5204.00
2018-08-13T05:10:38.406Z,5384.00
2018-08-13T05:11:38.376Z,5512.00
2018-08-13T05:12:38.355Z,5584.00
2018-08-13T05:13:38.330Z,5624.00
2018-08-13T05:14:38.310Z,5692.00
2018-08-13T05:15:38.284Z,5808.00
2018-08-13T05:16:38.260Z,5932.00
2018-08-13T05:17:38.236Z,6064.00
2018-08-13T05:18:38.216Z,6212.00
2018-08-13T05:19:38.192Z,6392.00
2018-08-13T05:20:38.175Z,6568.00
2018-08-13T05:21:38.145Z,6760.00
2018-08-13T05:22:38.120Z,7036.00
2018-08-13T05:23:38.097Z,7260.00
2018-08-13T05:24:38.076Z,7416.00
2018-08-13T05:25:38.049Z,7524.00
2018-08-13T05:26:38.027Z,7508.00
2018-08-13T05:27:38.009Z,7300.00
2018-08-13T05:28:37.982Z,6980.00
2018-08-13T05:29:37.957Z,6592.00
2018-08-13T05:30:37.934Z,6268.00
2018-08-13T05:31:37.911Z,6036.00
2018-08-13T05:32:37.896Z,5896.00
2018-08-13T05:33:37.864Z,5868.00
2018-08-13T05:34:37.843Z,5920.00
2018-08-13T05:35:37.819Z,6036.00
2018-08-13T05:36:37.800Z,6220.00
2018-08-13T05:37:37.774Z,6448.00
2018-08-13T05:38:37.752Z,6704.00
2018-08-13T05:39:37.726Z,7036.00
2018-08-13T05:40:37.705Z,7420.00
2018-08-13T05:41:37.689Z,7788.00
2018-08-13T05:42:37.656Z,8032.00
2018-08-13T05:43:37.634Z,8232.00
2018-08-13T05:44:37.609Z,8488.00
2018-08-13T05:45:37.587Z,8848.00
2018-08-13T05:46:37.572Z,9328.00
2018-08-13T05:47:37.541Z,9764.00
2018-08-13T05:48:37.518Z,10128.00
2018-08-13T05:49:37.494Z,10544.00
2018-08-13T05:50:37.471Z,11048.00
2018-08-13T05:51:37.450Z,11392.00
2018-08-13T05:52:37.425Z,11596.00
2018-08-13T05:53:37.401Z,11708.00
2018-08-13T05:54:37.381Z,11688.00
2018-08-13T05:55:37.357Z,11688.00
2018-08-13T05:56:37.334Z,11784.00
2018-08-13T05:57:37.311Z,11772.00
2018-08-13T05:58:37.287Z,11480.00
2018-08-13T05:59:37.265Z,10868.00
2018-08-13T06:00:37.244Z,10292.00
2018-08-13T06:01:37.220Z,9968.00
2018-08-13T06:02:37.197Z,10076.00
2018-08-13T06:03:37.175Z,10540.00
2018-08-13T06:04:37.157Z,11240.00
2018-08-13T06:05:37.129Z,12020.00
2018-08-13T06:06:37.105Z,12748.00
2018-08-13T06:07:37.084Z,13388.00
2018-08-13T06:08:37.060Z,13992.00
2018-08-13T06:09:37.043Z,14720.00
2018-08-13T06:10:37.015Z,15708.00
2018-08-13T06:11:37.238Z,16844.00
2018-08-13T06:12:36.971Z,17952.00
2018-08-13T06:13:36.948Z,18496.00
2018-08-13T06:14:36.925Z,18560.00
2018-08-13T06:15:36.903Z,18208.00
2018-08-13T06:16:36.883Z,17408.00
2018-08-13T06:17:36.859Z,16324.00
2018-08-13T06:18:36.837Z,15372.00
2018-08-13T06:19:36.814Z,14580.00
2018-08-13T06:20:36.791Z,14244.00
2018-08-13T06:21:36.769Z,14504.00
2018-08-13T06:22:36.747Z,15268.00
2018-08-13T06:23:36.725Z,16376.00
2018-08-13T06:24:36.703Z,17728.00
2018-08-13T06:25:36.680Z,18880.00
2018-08-13T06:26:36.659Z,19744.00
2018-08-13T06:27:36.638Z,20448.00
2018-08-13T06:28:36.614Z,20864.00
2018-08-13T06:29:36.593Z,21408.00
2018-08-13T06:30:36.571Z,22080.00
2018-08-13T06:31:36.550Z,22784.00
2018-08-13T06:32:36.529Z,23488.00
2018-08-13T06:33:36.506Z,24128.00
2018-08-13T06:34:36.484Z,24544.00
2018-08-13T06:35:36.466Z,24960.00
2018-08-13T06:36:36.440Z,25408.00
2018-08-13T06:37:36.420Z,26112.00
2018-08-13T06:38:36.397Z,26880.00
2018-08-13T06:39:36.377Z,27520.00
2018-08-13T06:40:36.373Z,28128.00
2018-08-13T06:41:36.347Z,28704.00
2018-08-13T06:42:36.514Z,28896.00
2018-08-13T06:43:36.291Z,28704.00
2018-08-13T06:44:36.269Z,27904.00
2018-08-13T06:45:36.248Z,26784.00
2018-08-13T06:46:36.235Z,25792.00
2018-08-13T06:47:36.409Z,25312.00
2018-08-13T06:48:36.188Z,25088.00
2018-08-13T06:49:36.173Z,25216.00
2018-08-13T06:50:36.146Z,25728.00
2018-08-13T06:51:36.122Z,27744.00
2018-08-13T06:52:36.103Z,28800.00
2018-08-13T06:53:36.080Z,28704.00
2018-08-13T06:54:36.262Z,28384.00
2018-08-13T06:55:36.040Z,30080.00
2018-08-13T06:56:36.019Z,32800.00
2018-08-13T06:57:35.997Z,31072.00
2018-08-13T06:58:35.976Z,28768.00
2018-08-13T06:59:35.957Z,28032.00
2018-08-13T07:00:35.939Z,27232.00
2018-08-13T07:01:35.916Z,26176.00
2018-08-13T07:02:35.901Z,25120.00
2018-08-13T07:03:35.878Z,24544.00
2018-08-13T07:04:35.854Z,23776.00
2018-08-13T07:05:35.835Z,23008.00
2018-08-13T07:06:35.816Z,22144.00
2018-08-13T07:07:35.794Z,21664.00
2018-08-13T07:08:35.773Z,21664.00
2018-08-13T07:09:35.755Z,21952.00
2018-08-13T07:10:35.739Z,22304.00
2018-08-13T07:11:35.712Z,22720.00
2018-08-13T07:12:35.691Z,22752.00
2018-08-13T07:13:35.671Z,22784.00
2018-08-13T07:14:35.661Z,23392.00
2018-08-13T07:15:35.674Z,24384.00
2018-08-13T07:16:35.611Z,25408.00
2018-08-13T07:17:35.594Z,25952.00
2018-08-13T07:18:35.621Z,26080.00
2018-08-13T07:19:35.553Z,26592.00
2018-08-13T07:20:35.529Z,27424.00
2018-08-13T07:21:35.514Z,28096.00
2018-08-13T07:22:35.489Z,28192.00
2018-08-13T07:23:35.469Z,28000.00
2018-08-13T07:24:35.450Z,28064.00
2018-08-13T07:25:35.427Z,28096.00
2018-08-13T07:26:35.409Z,28192.00
2018-08-13T07:27:35.402Z,28768.00
2018-08-13T07:28:35.370Z,29664.00
2018-08-13T07:29:35.349Z,31296.00
2018-08-13T07:30:35.338Z,33632.00
2018-08-13T07:31:35.307Z,35552.00
2018-08-13T07:32:35.286Z,36736.00
2018-08-13T07:33:35.292Z,36608.00
2018-08-13T07:34:35.247Z,36064.00
2018-08-13T07:35:35.230Z,35520.00
2018-08-13T07:36:35.206Z,34912.00
2018-08-13T07:37:35.187Z,38208.00
2018-08-13T07:38:35.167Z,44896.00
2018-08-13T07:39:35.358Z,58528.00
2018-08-13T07:40:35.127Z,64736.00
2018-08-13T07:41:35.110Z,66336.00
2018-08-13T07:42:35.292Z,61248.00
2018-08-13T07:44:17.430Z,49440.00
2018-08-13T07:45:17.214Z,44320.00
2018-08-13T07:46:17.189Z,44288.00
2018-08-13T07:47:17.374Z,54912.00
2018-08-13T07:48:17.355Z,62944.00
2018-08-13T07:49:17.133Z,55552.00
2018-08-13T07:50:19.739Z,34336.00
2018-08-13T07:51:17.104Z,32768.00
2018-08-13T07:52:17.286Z,47264.00
2018-08-13T07:53:17.266Z,38176.00
2018-08-13T07:54:59.406Z,44864.00
2018-08-13T07:55:59.392Z,45952.00
2018-08-13T07:56:59.168Z,63136.00
2018-08-13T07:57:59.356Z,62272.00
2018-08-13T07:58:59.133Z,69952.00
2018-08-13T07:59:59.167Z,65728.00
2018-08-13T08:00:59.302Z,58720.00
2018-08-13T08:02:01.907Z,63232.00
2018-08-13T08:02:59.269Z,62272.00
2018-08-13T08:03:59.251Z,54528.00
2018-08-13T08:04:59.236Z,55264.00
2018-08-13T08:05:59.016Z,50336.00
2018-08-13T08:06:59.205Z,49536.00
2018-08-13T08:07:58.986Z,52032.00
2018-08-13T08:08:59.173Z,56384.00
2018-08-13T08:09:59.154Z,56032.00
2018-08-13T08:10:59.139Z,58176.00
2018-08-13T08:11:59.126Z,60160.00
2018-08-13T08:13:01.730Z,56256.00
2018-08-13T08:15:23.414Z,50464.00
2018-08-13T08:16:23.393Z,45824.00
2018-08-13T08:18:05.536Z,51296.00
2018-08-13T08:19:05.521Z,54688.00
2018-08-13T08:20:47.663Z,40736.00
2018-08-13T08:21:47.447Z,53664.00
2018-08-13T08:22:47.432Z,40256.00
2018-08-13T08:23:47.415Z,54656.00
2018-08-13T08:24:47.414Z,54496.00
2018-08-13T08:25:47.383Z,55520.00
2018-08-13T08:26:47.578Z,58848.00
2018-08-13T08:27:47.554Z,56928.00
2018-08-13T08:28:47.540Z,57664.00
2018-08-13T08:29:47.526Z,64992.00
2018-08-13T08:30:47.508Z,66240.00
2018-08-13T08:31:47.297Z,57408.00
2018-08-13T08:32:47.276Z,67904.00
2018-08-13T08:33:47.665Z,64160.00
2018-08-13T08:34:47.488Z,62976.00
2018-08-13T08:35:47.434Z,69856.00
2018-08-13T08:36:47.627Z,74272.00
2018-08-13T08:37:47.200Z,77600.00
2018-08-13T08:38:47.189Z,68608.00
2018-08-13T08:39:47.171Z,75584.00
2018-08-13T08:40:47.193Z,76064.00
2018-08-13T08:41:47.344Z,75776.00
2018-08-13T08:42:47.329Z,79488.00
2018-08-13T08:44:32.106Z,86464.00
2018-08-13T08:45:32.691Z,84224.00
2018-08-13T08:46:32.068Z,88384.00
2018-08-13T08:47:29.434Z,86112.00
2018-08-13T08:48:29.419Z,92992.00
2018-08-13T08:49:29.403Z,95232.00
2018-08-13T08:50:29.402Z,88352.00
2018-08-13T08:51:29.375Z,83232.00
2018-08-13T08:52:29.160Z,70432.00
2018-08-13T08:53:29.169Z,76352.00
2018-08-13T08:54:30.345Z,90624.00
2018-08-13T08:55:29.321Z,96160.00
2018-08-13T08:57:11.469Z,99040.00
2018-08-13T08:58:53.623Z,97984.00
2018-08-13T08:59:53.602Z,97120.00
2018-08-13T09:00:53.995Z,102880.00
2018-08-13T09:01:53.580Z,106560.00
2018-08-13T09:02:53.564Z,101952.00
2018-08-13T09:03:53.552Z,89472.00
2018-08-13T09:04:53.851Z,113952.00
2018-08-13T09:05:53.580Z,112160.00
2018-08-13T09:06:53.314Z,105056.00
2018-08-13T09:07:53.504Z,109792.00
2018-08-13T09:08:53.287Z,101824.00
2018-08-13T09:09:53.480Z,88320.00
2018-08-13T09:10:53.266Z,74592.00
2018-08-13T09:11:53.455Z,88288.00
2018-08-13T09:12:53.241Z,80704.00
2018-08-13T09:13:53.228Z,87136.00
2018-08-13T09:16:17.748Z,111040.00
2018-08-13T09:17:59.893Z,90880.00
2018-08-13T09:18:59.705Z,89824.00
2018-08-13T09:19:59.870Z,116064.00
2018-08-13T09:20:59.863Z,100544.00
2018-08-13T09:21:59.850Z,108160.00
2018-08-13T09:22:59.634Z,105440.00
2018-08-13T09:23:59.620Z,70400.00
2018-08-13T09:24:59.608Z,107968.00
2018-08-13T09:25:59.805Z,129440.00
2018-08-13T09:26:59.787Z,75776.00
2018-08-13T09:28:41.940Z,71424.00
2018-08-13T09:29:41.726Z,73760.00
2018-08-13T09:30:41.712Z,122912.00
2018-08-13T09:31:41.702Z,145024.00
2018-08-13T09:32:41.893Z,130784.00
2018-08-13T09:33:41.877Z,115616.00
2018-08-13T09:34:43.081Z,97984.00
2018-08-13T09:35:41.859Z,80960.00
2018-08-13T09:36:41.908Z,124064.00
2018-08-13T09:37:41.834Z,113728.00
2018-08-13T09:38:41.620Z,114240.00
2018-08-13T09:39:41.843Z,91040.00
2018-08-13T09:40:44.221Z,96608.00
2018-08-13T09:41:41.791Z,72896.00
2018-08-13T09:42:41.781Z,64256.00
2018-08-13T09:44:26.553Z,66944.00
2018-08-13T09:45:23.727Z,73568.00
2018-08-13T09:46:23.708Z,68544.00
2018-08-13T09:47:23.697Z,72128.00
2018-08-13T09:48:23.689Z,72768.00
2018-08-13T09:49:23.675Z,76864.00
2018-08-13T09:50:23.664Z,63648.00
2018-08-13T09:51:23.656Z,62656.00
2018-08-13T09:52:23.894Z,57664.00
2018-08-13T09:53:24.438Z,58880.00
2018-08-13T09:54:23.819Z,56832.00
2018-08-13T09:55:23.808Z,131200.00
2018-08-13T09:56:23.601Z,128384.00
2018-08-13T09:57:23.588Z,117856.00
2018-08-13T09:58:23.570Z,92672.00
2018-08-13T09:59:23.559Z,68576.00
2018-08-13T10:00:23.620Z,64640.00
2018-08-13T10:01:23.536Z,67360.00
2018-08-13T10:02:23.524Z,105664.00
2018-08-13T10:03:23.519Z,99872.00
2018-08-13T10:04:23.506Z,75712.00
2018-08-13T10:05:23.489Z,65920.00
2018-08-13T10:06:23.478Z,56672.00
2018-08-13T10:07:23.467Z,55616.00
2018-08-13T10:08:23.458Z,54528.00
2018-08-13T10:09:23.459Z,53568.00
2018-08-13T10:10:23.432Z,52000.00
2018-08-13T10:11:23.420Z,51296.00
2018-08-13T10:12:23.408Z,51392.00
2018-08-13T10:13:23.398Z,53024.00
2018-08-13T10:14:23.589Z,55200.00
2018-08-13T10:15:23.369Z,54016.00
2018-08-13T10:16:23.358Z,56160.00
2018-08-13T10:17:23.348Z,54080.00
2018-08-13T10:18:23.533Z,53888.00
2018-08-13T10:20:05.682Z,66848.00
2018-08-13T10:21:05.470Z,63232.00
2018-08-13T10:22:05.454Z,85632.00
2018-08-13T10:23:05.444Z,65568.00
2018-08-13T10:24:05.433Z,69408.00
2018-08-13T10:25:05.415Z,123776.00
2018-08-13T10:26:05.402Z,63168.00
2018-08-13T10:27:47.753Z,51104.00
2018-08-13T10:28:47.740Z,49408.00
2018-08-13T10:29:47.760Z,50624.00
2018-08-13T10:30:47.714Z,66016.00
2018-08-13T10:31:47.701Z,64704.00
2018-08-13T10:32:47.484Z,65472.00
2018-08-13T10:33:47.905Z,62208.00
2018-08-13T10:34:47.662Z,61216.00
2018-08-13T10:35:47.651Z,59424.00
2018-08-13T10:36:51.066Z,64000.00
2018-08-13T10:37:47.622Z,60032.00
2018-08-13T10:38:47.611Z,57216.00
2018-08-13T10:39:47.601Z,55296.00
2018-08-13T10:40:47.379Z,60896.00
2018-08-13T10:41:47.368Z,62240.00
2018-08-13T10:42:47.354Z,105152.00
2018-08-13T10:43:47.341Z,70432.00
2018-08-13T10:44:47.366Z,67264.00
2018-08-13T10:45:47.315Z,62336.00
2018-08-13T10:46:47.302Z,74368.00
2018-08-13T10:47:47.294Z,60768.00
2018-08-13T10:48:47.275Z,59840.00
2018-08-13T10:49:47.264Z,56576.00
2018-08-13T10:50:47.452Z,60288.00
2018-08-13T10:51:47.741Z,65632.00
2018-08-13T10:52:47.227Z,48416.00
2018-08-13T10:53:50.037Z,45952.00
2018-08-13T10:54:47.405Z,45984.00
2018-08-13T10:55:48.403Z,49344.00
2018-08-13T10:56:47.378Z,48352.00
2018-08-13T10:57:48.363Z,49600.00
2018-08-13T10:58:49.973Z,51744.00
2018-08-13T10:59:47.336Z,52896.00
2018-08-13T11:01:29.484Z,66528.00
2018-08-13T11:03:11.651Z,53376.00
2018-08-13T11:04:56.398Z,60256.00
2018-08-13T11:05:53.760Z,61632.00
2018-08-13T11:06:53.746Z,56032.00
2018-08-13T11:08:35.906Z,47456.00
2018-08-13T11:09:35.887Z,46144.00
2018-08-13T11:10:35.865Z,44640.00
2018-08-13T11:11:35.851Z,44384.00
2018-08-13T11:12:35.835Z,45824.00
2018-08-13T11:13:35.677Z,47584.00
2018-08-13T11:14:35.604Z,42464.00
2018-08-13T11:15:35.800Z,40640.00
2018-08-13T11:16:38.401Z,38912.00
2018-08-13T11:17:35.562Z,37536.00
2018-08-13T11:18:35.746Z,36672.00
2018-08-13T11:19:35.734Z,35936.00
2018-08-13T11:20:35.517Z,35648.00
2018-08-13T11:21:35.516Z,36192.00
2018-08-13T11:22:35.487Z,36832.00
2018-08-13T11:23:35.679Z,39424.00
2018-08-13T11:25:17.924Z,41536.00
2018-08-13T11:26:18.055Z,42752.00
2018-08-13T11:27:17.789Z,41312.00
2018-08-13T11:29:00.132Z,40160.00
2018-08-13T11:30:00.722Z,39200.00
2018-08-13T11:30:59.902Z,39008.00
2018-08-13T11:31:59.895Z,39872.00
2018-08-13T11:33:42.025Z,38976.00
2018-08-13T11:34:43.081Z,38144.00
2018-08-13T11:35:42.802Z,37344.00
2018-08-13T11:36:45.206Z,37056.00
2018-08-13T11:38:24.120Z,36704.00
2018-08-13T11:39:24.507Z,36384.00
2018-08-13T11:41:48.406Z,36128.00
2018-08-13T11:42:48.386Z,36704.00
2018-08-13T11:43:48.369Z,37600.00
2018-08-13T11:44:48.150Z,38560.00
2018-08-13T11:45:48.132Z,39392.00
2018-08-13T11:46:48.320Z,39712.00
2018-08-13T11:47:48.099Z,39328.00
2018-08-13T11:48:48.083Z,38592.00
2018-08-13T11:49:48.276Z,38112.00
2018-08-13T11:50:48.064Z,38048.00
2018-08-13T11:51:48.034Z,38048.00
2018-08-13T11:52:48.017Z,37696.00
2018-08-13T11:53:48.204Z,37152.00
2018-08-13T11:54:49.000Z,36896.00
2018-08-13T11:55:48.169Z,37408.00
2018-08-13T11:56:47.957Z,39136.00
2018-08-13T11:58:30.293Z,40384.00
2018-08-13T11:59:30.082Z,38976.00
2018-08-13T12:00:30.259Z,37216.00
2018-08-13T12:01:32.869Z,35392.00
2018-08-13T12:02:30.228Z,33728.00
2018-08-13T12:03:30.210Z,32320.00
2018-08-13T12:05:12.956Z,29952.00
2018-08-13T12:06:12.332Z,28544.00
2018-08-13T12:07:12.314Z,27328.00
2018-08-13T12:08:12.314Z,26432.00
2018-08-13T12:09:12.287Z,25824.00
2018-08-13T12:12:18.730Z,22400.00
2018-08-13T12:13:18.510Z,20704.00
2018-08-13T12:15:00.857Z,18272.00
2018-08-13T12:16:00.832Z,16940.00
2018-08-13T12:18:25.126Z,16128.00
2018-08-13T12:22:58.515Z,15512.00
2018-08-13T12:24:38.022Z,14764.00
2018-08-13T12:25:41.440Z,14564.00
2018-08-13T12:26:37.781Z,14448.00
2018-08-13T12:27:37.765Z,14564.00
2018-08-13T12:28:37.746Z,15060.00
2018-08-13T12:29:37.926Z,15836.00
2018-08-13T12:31:20.069Z,17096.00
2018-08-13T12:32:20.044Z,17536.00
2018-08-13T12:33:20.023Z,17036.00
2018-08-13T12:34:20.014Z,16128.00
2018-08-13T12:35:20.389Z,15152.00
2018-08-13T12:36:19.763Z,14536.00
2018-08-13T12:37:20.297Z,14536.00
2018-08-13T12:38:19.927Z,15232.00
2018-08-13T12:39:19.908Z,16056.00
2018-08-13T12:40:19.686Z,16476.00
2018-08-13T12:41:19.667Z,16376.00
2018-08-13T12:42:19.651Z,16008.00
2018-08-13T12:43:19.633Z,15564.00